sensor_id;sensor_type;location;lat;lon;timestamp;P1;durP1;ratioP1;P2;durP2;ratioP2
9838;SDS011;4958;48.150;11.506;2022-07-23T02:00:26;7.05;;;5.93;;
9838;SDS011;4958;48.150;11.506;2022-07-23T02:02:58;6.25;;;5.70;;
9838;SDS011;4958;48.150;11.506;2022-07-23T02:05:32;7.45;;;6.28;;
9838;SDS011;4958;48.150;11.506;2022-07-23T02:10:48;6.45;;;5.85;;
9838;SDS011;4958;48.150;11.506;2022-07-23T02:13:22;6.93;;;5.93;;
9838;SDS011;4958;48.150;11.506;2022-07-23T02:51:24;5.15;;;3.95;;
9838;SDS011;4958;48.150;11.506;2022-07-23T02:57:05;7.25;;;3.78;;
9838;SDS011;4958;48.150;11.506;2022-07-23T03:50:37;4.55;;;4.10;;
9838;SDS011;4958;48.150;11.506;2022-07-23T03:57:11;4.85;;;4.35;;
9838;SDS011;4958;48.150;11.506;2022-07-23T05:23:31;5.32;;;4.75;;
9838;SDS011;4958;48.150;11.506;2022-07-23T05:29:53;7.43;;;4.50;;
9838;SDS011;4958;48.150;11.506;2022-07-23T05:32:19;5.20;;;4.70;;
9838;SDS011;4958;48.150;11.506;2022-07-23T05:34:45;5.68;;;4.60;;
9838;SDS011;4958;48.150;11.506;2022-07-23T05:37:12;4.07;;;3.78;;
9838;SDS011;4958;48.150;11.506;2022-07-23T05:39:41;4.85;;;4.30;;
9838;SDS011;4958;48.150;11.506;2022-07-23T05:42:10;4.78;;;4.38;;
9838;SDS011;4958;48.150;11.506;2022-07-23T05:44:37;5.15;;;4.65;;
9838;SDS011;4958;48.150;11.506;2022-07-23T05:47:03;5.72;;;4.68;;
9838;SDS011;4958;48.150;11.506;2022-07-23T05:49:30;6.70;;;4.80;;
9838;SDS011;4958;48.150;11.506;2022-07-23T05:51:56;4.78;;;4.38;;
9838;SDS011;4958;48.150;11.506;2022-07-23T05:54:25;5.90;;;4.75;;
9838;SDS011;4958;48.150;11.506;2022-07-23T05:56:53;4.90;;;4.50;;
9838;SDS011;4958;48.150;11.506;2022-07-23T05:59:20;5.45;;;4.95;;
9838;SDS011;4958;48.150;11.506;2022-07-23T06:01:46;6.07;;;5.47;;
9838;SDS011;4958;48.150;11.506;2022-07-23T06:04:12;5.95;;;4.90;;
9838;SDS011;4958;48.150;11.506;2022-07-23T06:06:39;5.78;;;5.28;;
9838;SDS011;4958;48.150;11.506;2022-07-23T06:09:05;6.28;;;5.10;;
9838;SDS011;4958;48.150;11.506;2022-07-23T06:11:32;11.77;;;10.75;;
9838;SDS011;4958;48.150;11.506;2022-07-23T06:14:00;8.02;;;7.32;;
9838;SDS011;4958;48.150;11.506;2022-07-23T06:16:32;7.47;;;6.72;;
9838;SDS011;4958;48.150;11.506;2022-07-23T06:18:59;10.98;;;6.60;;
9838;SDS011;4958;48.150;11.506;2022-07-23T06:24:53;5.70;;;5.30;;
9838;SDS011;4958;48.150;11.506;2022-07-23T06:27:31;5.03;;;4.63;;
9838;SDS011;4958;48.150;11.506;2022-07-23T06:57:57;6.60;;;6.00;;
9838;SDS011;4958;48.150;11.506;2022-07-23T07:00:36;7.40;;;6.72;;
9838;SDS011;4958;48.150;11.506;2022-07-23T07:06:56;6.18;;;5.60;;
9838;SDS011;4958;48.150;11.506;2022-07-23T07:09:33;6.88;;;6.38;;
9838;SDS011;4958;48.150;11.506;2022-07-23T07:12:03;6.68;;;6.07;;
9838;SDS011;4958;48.150;11.506;2022-07-23T07:14:34;6.32;;;5.72;;
9838;SDS011;4958;48.150;11.506;2022-07-23T07:17:00;6.78;;;6.05;;
9838;SDS011;4958;48.150;11.506;2022-07-23T07:19:29;7.22;;;6.72;;
9838;SDS011;4958;48.150;11.506;2022-07-23T07:21:56;8.40;;;7.60;;
9838;SDS011;4958;48.150;11.506;2022-07-23T07:24:23;9.90;;;9.10;;
9838;SDS011;4958;48.150;11.506;2022-07-23T07:26:49;7.05;;;6.45;;
9838;SDS011;4958;48.150;11.506;2022-07-23T07:29:16;6.60;;;6.10;;
9838;SDS011;4958;48.150;11.506;2022-07-23T07:31:43;6.65;;;6.10;;
9838;SDS011;4958;48.150;11.506;2022-07-23T07:34:10;6.25;;;5.75;;
9838;SDS011;4958;48.150;11.506;2022-07-23T07:36:38;7.47;;;6.78;;
9838;SDS011;4958;48.150;11.506;2022-07-23T07:39:06;6.75;;;6.15;;
9838;SDS011;4958;48.150;11.506;2022-07-23T07:41:35;6.90;;;6.30;;
9838;SDS011;4958;48.150;11.506;2022-07-23T07:44:02;6.35;;;5.85;;
9838;SDS011;4958;48.150;11.506;2022-07-23T07:46:28;6.50;;;6.00;;
9838;SDS011;4958;48.150;11.506;2022-07-23T07:48:56;7.18;;;6.47;;
9838;SDS011;4958;48.150;11.506;2022-07-23T07:51:23;6.75;;;6.15;;
9838;SDS011;4958;48.150;11.506;2022-07-23T07:53:49;7.25;;;6.28;;
9838;SDS011;4958;48.150;11.506;2022-07-23T07:56:16;6.50;;;6.00;;
9838;SDS011;4958;48.150;11.506;2022-07-23T07:58:42;6.50;;;6.00;;
9838;SDS011;4958;48.150;11.506;2022-07-23T08:01:09;7.00;;;6.45;;
9838;SDS011;4958;48.150;11.506;2022-07-23T08:03:35;7.20;;;6.60;;
9838;SDS011;4958;48.150;11.506;2022-07-23T08:06:03;6.63;;;6.03;;
9838;SDS011;4958;48.150;11.506;2022-07-23T08:08:30;6.45;;;5.95;;
9838;SDS011;4958;48.150;11.506;2022-07-23T08:10:57;6.50;;;6.00;;
9838;SDS011;4958;48.150;11.506;2022-07-23T08:13:43;6.68;;;6.18;;
9838;SDS011;4958;48.150;11.506;2022-07-23T08:16:10;6.65;;;5.85;;
9838;SDS011;4958;48.150;11.506;2022-07-23T08:18:36;6.72;;;6.15;;
9838;SDS011;4958;48.150;11.506;2022-07-23T08:21:04;6.63;;;6.13;;
9838;SDS011;4958;48.150;11.506;2022-07-23T08:23:32;6.03;;;5.47;;
9838;SDS011;4958;48.150;11.506;2022-07-23T08:26:01;8.27;;;6.20;;
9838;SDS011;4958;48.150;11.506;2022-07-23T08:28:33;6.72;;;6.03;;
9838;SDS011;4958;48.150;11.506;2022-07-23T08:31:05;6.68;;;6.15;;
9838;SDS011;4958;48.150;11.506;2022-07-23T08:33:31;7.25;;;6.03;;
9838;SDS011;4958;48.150;11.506;2022-07-23T08:36:01;6.53;;;6.03;;
9838;SDS011;4958;48.150;11.506;2022-07-23T08:38:41;6.20;;;5.63;;
9838;SDS011;4958;48.150;11.506;2022-07-23T08:41:08;5.88;;;5.47;;
9838;SDS011;4958;48.150;11.506;2022-07-23T08:43:42;5.68;;;5.18;;
9838;SDS011;4958;48.150;11.506;2022-07-23T08:46:13;6.75;;;5.80;;
9838;SDS011;4958;48.150;11.506;2022-07-23T08:51:39;6.07;;;5.57;;
9838;SDS011;4958;48.150;11.506;2022-07-23T08:54:11;5.70;;;5.20;;
9838;SDS011;4958;48.150;11.506;2022-07-23T08:56:41;6.00;;;5.50;;
9838;SDS011;4958;48.150;11.506;2022-07-23T08:59:09;5.70;;;5.20;;
9838;SDS011;4958;48.150;11.506;2022-07-23T09:01:39;7.22;;;5.50;;
9838;SDS011;4958;48.150;11.506;2022-07-23T09:04:05;5.60;;;5.10;;
9838;SDS011;4958;48.150;11.506;2022-07-23T09:06:39;5.80;;;5.22;;
9838;SDS011;4958;48.150;11.506;2022-07-23T09:09:17;6.32;;;5.60;;
9838;SDS011;4958;48.150;11.506;2022-07-23T09:11:45;6.35;;;5.75;;
9838;SDS011;4958;48.150;11.506;2022-07-23T09:14:12;5.65;;;5.15;;
9838;SDS011;4958;48.150;11.506;2022-07-23T09:16:39;6.05;;;5.65;;
9838;SDS011;4958;48.150;11.506;2022-07-23T09:19:06;5.97;;;5.50;;
9838;SDS011;4958;48.150;11.506;2022-07-23T09:21:33;6.32;;;5.60;;
9838;SDS011;4958;48.150;11.506;2022-07-23T09:24:06;6.30;;;5.78;;
9838;SDS011;4958;48.150;11.506;2022-07-23T09:26:34;6.85;;;6.00;;
9838;SDS011;4958;48.150;11.506;2022-07-23T09:29:04;6.50;;;5.93;;
9838;SDS011;4958;48.150;11.506;2022-07-23T09:31:47;6.32;;;5.88;;
9838;SDS011;4958;48.150;11.506;2022-07-23T09:34:17;6.00;;;5.57;;
9838;SDS011;4958;48.150;11.506;2022-07-23T09:37:09;6.93;;;5.18;;
9838;SDS011;4958;48.150;11.506;2022-07-23T09:39:53;5.65;;;5.10;;
9838;SDS011;4958;48.150;11.506;2022-07-23T09:42:33;6.38;;;5.88;;
9838;SDS011;4958;48.150;11.506;2022-07-23T09:45:06;7.10;;;5.38;;
9838;SDS011;4958;48.150;11.506;2022-07-23T09:47:42;5.90;;;5.43;;
9838;SDS011;4958;48.150;11.506;2022-07-23T09:50:13;5.93;;;5.35;;
9838;SDS011;4958;48.150;11.506;2022-07-23T09:52:51;5.63;;;5.22;;
9838;SDS011;4958;48.150;11.506;2022-07-23T09:55:30;4.88;;;4.57;;
9838;SDS011;4958;48.150;11.506;2022-07-23T09:58:01;5.10;;;4.70;;
9838;SDS011;4958;48.150;11.506;2022-07-23T10:00:28;5.28;;;4.53;;
9838;SDS011;4958;48.150;11.506;2022-07-23T10:02:58;5.18;;;4.78;;
9838;SDS011;4958;48.150;11.506;2022-07-23T10:05:26;5.43;;;4.93;;
9838;SDS011;4958;48.150;11.506;2022-07-23T10:08:16;6.45;;;5.47;;
9838;SDS011;4958;48.150;11.506;2022-07-23T10:11:02;5.00;;;4.70;;
9838;SDS011;4958;48.150;11.506;2022-07-23T10:13:41;5.80;;;5.10;;
9838;SDS011;4958;48.150;11.506;2022-07-23T10:16:25;6.03;;;4.90;;
9838;SDS011;4958;48.150;11.506;2022-07-23T10:19:01;5.50;;;5.00;;
9838;SDS011;4958;48.150;11.506;2022-07-23T10:21:52;5.28;;;4.88;;
9838;SDS011;4958;48.150;11.506;2022-07-23T10:24:38;4.85;;;4.43;;
9838;SDS011;4958;48.150;11.506;2022-07-23T10:30:43;6.65;;;4.72;;
9838;SDS011;4958;48.150;11.506;2022-07-23T10:33:24;5.38;;;4.63;;
9838;SDS011;4958;48.150;11.506;2022-07-23T10:36:19;5.28;;;4.88;;
9838;SDS011;4958;48.150;11.506;2022-07-23T10:39:03;4.80;;;4.40;;
9838;SDS011;4958;48.150;11.506;2022-07-23T10:41:41;5.03;;;4.63;;
9838;SDS011;4958;48.150;11.506;2022-07-23T10:44:17;6.68;;;6.10;;
9838;SDS011;4958;48.150;11.506;2022-07-23T10:46:53;5.13;;;4.63;;
9838;SDS011;4958;48.150;11.506;2022-07-23T10:49:54;4.88;;;4.47;;
9838;SDS011;4958;48.150;11.506;2022-07-23T10:53:10;4.60;;;4.18;;
9838;SDS011;4958;48.150;11.506;2022-07-23T11:03:29;5.25;;;4.75;;
9838;SDS011;4958;48.150;11.506;2022-07-23T11:17:02;5.10;;;4.80;;
9838;SDS011;4958;48.150;11.506;2022-07-23T11:23:27;5.55;;;5.10;;
9838;SDS011;4958;48.150;11.506;2022-07-23T11:29:43;5.47;;;4.88;;
9838;SDS011;4958;48.150;11.506;2022-07-23T11:32:31;5.57;;;5.18;;
9838;SDS011;4958;48.150;11.506;2022-07-23T11:35:17;5.25;;;4.80;;
9838;SDS011;4958;48.150;11.506;2022-07-23T11:37:52;5.65;;;4.93;;
9838;SDS011;4958;48.150;11.506;2022-07-23T11:40:42;5.32;;;4.85;;
9838;SDS011;4958;48.150;11.506;2022-07-23T11:43:17;6.40;;;5.88;;
9838;SDS011;4958;48.150;11.506;2022-07-23T11:45:57;6.40;;;5.80;;
9838;SDS011;4958;48.150;11.506;2022-07-23T11:51:29;6.40;;;5.80;;
9838;SDS011;4958;48.150;11.506;2022-07-23T11:54:07;6.78;;;5.30;;
9838;SDS011;4958;48.150;11.506;2022-07-23T11:56:34;6.07;;;5.35;;
9838;SDS011;4958;48.150;11.506;2022-07-23T11:59:01;6.15;;;5.65;;
9838;SDS011;4958;48.150;11.506;2022-07-23T12:01:28;6.65;;;6.13;;
9838;SDS011;4958;48.150;11.506;2022-07-23T12:03:56;6.10;;;5.60;;
9838;SDS011;4958;48.150;11.506;2022-07-23T12:06:22;6.75;;;6.05;;
9838;SDS011;4958;48.150;11.506;2022-07-23T12:08:49;6.85;;;6.32;;
9838;SDS011;4958;48.150;11.506;2022-07-23T12:11:15;7.40;;;6.70;;
9838;SDS011;4958;48.150;11.506;2022-07-23T12:13:43;8.10;;;7.18;;
9838;SDS011;4958;48.150;11.506;2022-07-23T12:16:10;6.85;;;6.35;;
9838;SDS011;4958;48.150;11.506;2022-07-23T12:18:36;6.32;;;5.72;;
9838;SDS011;4958;48.150;11.506;2022-07-23T12:21:03;6.03;;;5.53;;
9838;SDS011;4958;48.150;11.506;2022-07-23T12:23:31;6.25;;;5.75;;
9838;SDS011;4958;48.150;11.506;2022-07-23T12:26:00;7.30;;;6.00;;
9838;SDS011;4958;48.150;11.506;2022-07-23T12:28:28;6.53;;;5.85;;
9838;SDS011;4958;48.150;11.506;2022-07-23T12:34:23;5.68;;;5.28;;
9838;SDS011;4958;48.150;11.506;2022-07-23T12:36:51;5.75;;;5.35;;
9838;SDS011;4958;48.150;11.506;2022-07-23T12:39:28;5.90;;;5.40;;
9838;SDS011;4958;48.150;11.506;2022-07-23T12:41:56;6.00;;;5.50;;
9838;SDS011;4958;48.150;11.506;2022-07-23T12:44:29;7.95;;;5.82;;
9838;SDS011;4958;48.150;11.506;2022-07-23T12:47:04;5.65;;;5.15;;
9838;SDS011;4958;48.150;11.506;2022-07-23T12:49:32;6.55;;;5.88;;
9838;SDS011;4958;48.150;11.506;2022-07-23T12:51:58;6.10;;;5.60;;
9838;SDS011;4958;48.150;11.506;2022-07-23T12:54:26;8.07;;;5.47;;
9838;SDS011;4958;48.150;11.506;2022-07-23T12:56:53;6.32;;;5.65;;
9838;SDS011;4958;48.150;11.506;2022-07-23T12:59:20;6.57;;;5.70;;
9838;SDS011;4958;48.150;11.506;2022-07-23T13:01:53;6.20;;;5.60;;
9838;SDS011;4958;48.150;11.506;2022-07-23T13:04:21;6.05;;;5.55;;
9838;SDS011;4958;48.150;11.506;2022-07-23T13:06:49;5.85;;;5.25;;
9838;SDS011;4958;48.150;11.506;2022-07-23T13:09:18;6.10;;;5.60;;
9838;SDS011;4958;48.150;11.506;2022-07-23T13:11:46;6.22;;;5.63;;
9838;SDS011;4958;48.150;11.506;2022-07-23T13:14:14;6.10;;;5.70;;
9838;SDS011;4958;48.150;11.506;2022-07-23T13:16:42;5.90;;;5.35;;
9838;SDS011;4958;48.150;11.506;2022-07-23T13:19:09;7.32;;;5.75;;
9838;SDS011;4958;48.150;11.506;2022-07-23T13:21:36;5.95;;;5.45;;
9838;SDS011;4958;48.150;11.506;2022-07-23T13:24:05;7.38;;;5.90;;
9838;SDS011;4958;48.150;11.506;2022-07-23T13:26:32;7.20;;;6.50;;
9838;SDS011;4958;48.150;11.506;2022-07-23T13:28:58;6.60;;;6.00;;
9838;SDS011;4958;48.150;11.506;2022-07-23T13:31:25;6.75;;;5.80;;
9838;SDS011;4958;48.150;11.506;2022-07-23T13:33:51;6.30;;;5.70;;
9838;SDS011;4958;48.150;11.506;2022-07-23T13:36:18;7.35;;;6.18;;
9838;SDS011;4958;48.150;11.506;2022-07-23T13:38:44;6.97;;;5.80;;
9838;SDS011;4958;48.150;11.506;2022-07-23T13:41:12;6.30;;;5.70;;
9838;SDS011;4958;48.150;11.506;2022-07-23T13:43:41;6.93;;;6.13;;
9838;SDS011;4958;48.150;11.506;2022-07-23T13:46:07;6.55;;;6.03;;
9838;SDS011;4958;48.150;11.506;2022-07-23T13:48:34;6.60;;;6.10;;
9838;SDS011;4958;48.150;11.506;2022-07-23T13:51:00;6.47;;;5.93;;
9838;SDS011;4958;48.150;11.506;2022-07-23T13:53:27;7.05;;;6.35;;
9838;SDS011;4958;48.150;11.506;2022-07-23T13:55:53;6.25;;;5.75;;
9838;SDS011;4958;48.150;11.506;2022-07-23T13:58:21;6.22;;;5.63;;
9838;SDS011;4958;48.150;11.506;2022-07-23T14:00:49;6.63;;;6.13;;
9838;SDS011;4958;48.150;11.506;2022-07-23T14:03:17;6.65;;;5.85;;
9838;SDS011;4958;48.150;11.506;2022-07-23T14:05:45;6.60;;;6.10;;
9838;SDS011;4958;48.150;11.506;2022-07-23T14:08:11;6.47;;;5.97;;
9838;SDS011;4958;48.150;11.506;2022-07-23T14:10:38;6.50;;;6.00;;
9838;SDS011;4958;48.150;11.506;2022-07-23T14:13:04;6.38;;;5.88;;
9838;SDS011;4958;48.150;11.506;2022-07-23T14:15:32;6.75;;;6.15;;
9838;SDS011;4958;48.150;11.506;2022-07-23T14:17:59;6.93;;;6.32;;
9838;SDS011;4958;48.150;11.506;2022-07-23T14:20:26;7.63;;;6.57;;
9838;SDS011;4958;48.150;11.506;2022-07-23T14:22:52;6.32;;;5.78;;
9838;SDS011;4958;48.150;11.506;2022-07-23T14:25:20;6.95;;;5.90;;
9838;SDS011;4958;48.150;11.506;2022-07-23T14:27:47;5.95;;;5.35;;
9838;SDS011;4958;48.150;11.506;2022-07-23T14:30:14;6.50;;;5.80;;
9838;SDS011;4958;48.150;11.506;2022-07-23T14:32:42;8.25;;;6.25;;
9838;SDS011;4958;48.150;11.506;2022-07-23T14:35:12;6.65;;;6.00;;
9838;SDS011;4958;48.150;11.506;2022-07-23T14:37:38;8.60;;;6.22;;
9838;SDS011;4958;48.150;11.506;2022-07-23T14:47:12;6.13;;;5.63;;
9838;SDS011;4958;48.150;11.506;2022-07-23T14:49:40;6.10;;;5.60;;
9838;SDS011;4958;48.150;11.506;2022-07-23T14:52:06;7.65;;;6.63;;
9838;SDS011;4958;48.150;11.506;2022-07-23T14:54:33;5.43;;;5.03;;
9838;SDS011;4958;48.150;11.506;2022-07-23T14:57:00;6.40;;;5.40;;
9838;SDS011;4958;48.150;11.506;2022-07-23T14:59:27;6.78;;;6.18;;
9838;SDS011;4958;48.150;11.506;2022-07-23T15:02:15;6.28;;;5.75;;
9838;SDS011;4958;48.150;11.506;2022-07-23T15:05:24;5.85;;;5.38;;
9838;SDS011;4958;48.150;11.506;2022-07-23T15:07:54;6.40;;;5.90;;
9838;SDS011;4958;48.150;11.506;2022-07-23T15:10:31;6.45;;;5.85;;
9838;SDS011;4958;48.150;11.506;2022-07-23T15:13:22;6.32;;;5.85;;
9838;SDS011;4958;48.150;11.506;2022-07-23T15:15:49;6.20;;;5.70;;
9838;SDS011;4958;48.150;11.506;2022-07-23T15:18:21;6.32;;;5.82;;
9838;SDS011;4958;48.150;11.506;2022-07-23T15:21:03;6.00;;;5.50;;
9838;SDS011;4958;48.150;11.506;2022-07-23T15:23:29;6.32;;;5.82;;
9838;SDS011;4958;48.150;11.506;2022-07-23T15:25:56;6.63;;;6.10;;
9838;SDS011;4958;48.150;11.506;2022-07-23T15:28:23;6.75;;;6.15;;
9838;SDS011;4958;48.150;11.506;2022-07-23T15:30:50;6.07;;;5.57;;
9838;SDS011;4958;48.150;11.506;2022-07-23T15:33:17;6.85;;;6.30;;
9838;SDS011;4958;48.150;11.506;2022-07-23T15:35:44;7.15;;;6.55;;
9838;SDS011;4958;48.150;11.506;2022-07-23T15:38:12;7.32;;;6.70;;
9838;SDS011;4958;48.150;11.506;2022-07-23T15:40:39;7.07;;;6.47;;
9838;SDS011;4958;48.150;11.506;2022-07-23T15:43:05;7.18;;;6.57;;
9838;SDS011;4958;48.150;11.506;2022-07-23T15:45:32;6.57;;;6.18;;
9838;SDS011;4958;48.150;11.506;2022-07-23T15:48:01;6.85;;;6.28;;
9838;SDS011;4958;48.150;11.506;2022-07-23T15:50:31;6.60;;;6.00;;
9838;SDS011;4958;48.150;11.506;2022-07-23T15:52:58;6.20;;;5.70;;
9838;SDS011;4958;48.150;11.506;2022-07-23T15:55:31;6.50;;;5.90;;
9838;SDS011;4958;48.150;11.506;2022-07-23T15:57:59;6.82;;;6.32;;
9838;SDS011;4958;48.150;11.506;2022-07-23T16:00:25;8.35;;;7.65;;
9838;SDS011;4958;48.150;11.506;2022-07-23T16:02:52;8.10;;;7.40;;
9838;SDS011;4958;48.150;11.506;2022-07-23T16:05:19;6.78;;;6.28;;
9838;SDS011;4958;48.150;11.506;2022-07-23T16:07:46;7.32;;;6.63;;
9838;SDS011;4958;48.150;11.506;2022-07-23T16:10:12;6.95;;;6.35;;
9838;SDS011;4958;48.150;11.506;2022-07-23T16:12:40;7.15;;;6.65;;
9838;SDS011;4958;48.150;11.506;2022-07-23T16:15:07;7.45;;;6.85;;
9838;SDS011;4958;48.150;11.506;2022-07-23T16:17:34;6.93;;;6.43;;
9838;SDS011;4958;48.150;11.506;2022-07-23T16:20:00;7.10;;;6.50;;
9838;SDS011;4958;48.150;11.506;2022-07-23T16:22:28;7.72;;;6.93;;
9838;SDS011;4958;48.150;11.506;2022-07-23T16:24:55;7.97;;;7.28;;
9838;SDS011;4958;48.150;11.506;2022-07-23T16:27:22;7.70;;;7.00;;
9838;SDS011;4958;48.150;11.506;2022-07-23T16:29:50;7.47;;;6.80;;
9838;SDS011;4958;48.150;11.506;2022-07-23T16:32:16;7.43;;;6.82;;
9838;SDS011;4958;48.150;11.506;2022-07-23T16:34:42;7.25;;;6.65;;
9838;SDS011;4958;48.150;11.506;2022-07-23T16:37:09;7.80;;;7.15;;
9838;SDS011;4958;48.150;11.506;2022-07-23T16:39:36;7.82;;;7.22;;
9838;SDS011;4958;48.150;11.506;2022-07-23T16:42:18;7.88;;;7.15;;
9838;SDS011;4958;48.150;11.506;2022-07-23T16:44:50;7.50;;;6.90;;
9838;SDS011;4958;48.150;11.506;2022-07-23T17:46:56;8.52;;;7.57;;
9838;SDS011;4958;48.150;11.506;2022-07-23T17:56:39;7.35;;;6.85;;
9838;SDS011;4958;48.150;11.506;2022-07-23T17:59:21;8.85;;;7.78;;
9838;SDS011;4958;48.150;11.506;2022-07-23T18:01:48;8.55;;;7.85;;
9838;SDS011;4958;48.150;11.506;2022-07-23T18:04:16;7.93;;;7.18;;
9838;SDS011;4958;48.150;11.506;2022-07-23T18:06:43;8.30;;;7.68;;
9838;SDS011;4958;48.150;11.506;2022-07-23T18:09:09;8.15;;;7.40;;
9838;SDS011;4958;48.150;11.506;2022-07-23T18:11:37;8.50;;;7.70;;
9838;SDS011;4958;48.150;11.506;2022-07-23T18:14:05;7.95;;;7.35;;
9838;SDS011;4958;48.150;11.506;2022-07-23T18:16:34;8.98;;;8.18;;
9838;SDS011;4958;48.150;11.506;2022-07-23T18:19:01;7.97;;;7.28;;
9838;SDS011;4958;48.150;11.506;2022-07-23T18:21:29;8.10;;;7.45;;
9838;SDS011;4958;48.150;11.506;2022-07-23T18:23:56;8.48;;;7.75;;
9838;SDS011;4958;48.150;11.506;2022-07-23T18:26:22;8.30;;;7.65;;
9838;SDS011;4958;48.150;11.506;2022-07-23T18:28:49;8.82;;;8.13;;
9838;SDS011;4958;48.150;11.506;2022-07-23T18:31:16;9.57;;;8.02;;
9838;SDS011;4958;48.150;11.506;2022-07-23T18:33:44;8.18;;;7.45;;
9838;SDS011;4958;48.150;11.506;2022-07-23T18:36:10;8.70;;;8.02;;
9838;SDS011;4958;48.150;11.506;2022-07-23T18:38:37;9.13;;;8.38;;
9838;SDS011;4958;48.150;11.506;2022-07-23T18:41:03;8.48;;;7.78;;
9838;SDS011;4958;48.150;11.506;2022-07-23T18:43:30;9.32;;;8.43;;
9838;SDS011;4958;48.150;11.506;2022-07-23T18:46:00;9.07;;;8.27;;
9838;SDS011;4958;48.150;11.506;2022-07-23T18:48:27;8.38;;;7.78;;
9838;SDS011;4958;48.150;11.506;2022-07-23T18:50:58;8.85;;;8.13;;
9838;SDS011;4958;48.150;11.506;2022-07-23T18:53:24;8.73;;;8.00;;
9838;SDS011;4958;48.150;11.506;2022-07-23T18:55:53;8.50;;;7.82;;
9838;SDS011;4958;48.150;11.506;2022-07-23T18:58:20;8.82;;;8.02;;
9838;SDS011;4958;48.150;11.506;2022-07-23T19:00:46;8.82;;;7.97;;
9838;SDS011;4958;48.150;11.506;2022-07-23T19:03:13;8.75;;;8.05;;
9838;SDS011;4958;48.150;11.506;2022-07-23T19:05:39;9.02;;;8.15;;
9838;SDS011;4958;48.150;11.506;2022-07-23T19:08:07;8.57;;;7.88;;
9838;SDS011;4958;48.150;11.506;2022-07-23T19:10:37;8.27;;;7.57;;
9838;SDS011;4958;48.150;11.506;2022-07-23T19:13:04;9.73;;;8.73;;
9838;SDS011;4958;48.150;11.506;2022-07-23T19:15:32;8.95;;;8.30;;
9838;SDS011;4958;48.150;11.506;2022-07-23T19:17:59;9.40;;;8.60;;
9838;SDS011;4958;48.150;11.506;2022-07-23T19:20:31;9.25;;;8.55;;
9838;SDS011;4958;48.150;11.506;2022-07-23T19:22:58;8.82;;;8.13;;
9838;SDS011;4958;48.150;11.506;2022-07-23T19:25:26;8.65;;;7.85;;
9838;SDS011;4958;48.150;11.506;2022-07-23T19:27:57;8.75;;;7.78;;
9838;SDS011;4958;48.150;11.506;2022-07-23T19:30:24;8.40;;;7.78;;
9838;SDS011;4958;48.150;11.506;2022-07-23T19:32:50;9.65;;;8.30;;
9838;SDS011;4958;48.150;11.506;2022-07-23T19:35:20;8.77;;;8.07;;
9838;SDS011;4958;48.150;11.506;2022-07-23T19:37:49;8.63;;;7.93;;
9838;SDS011;4958;48.150;11.506;2022-07-23T19:40:16;8.70;;;7.90;;
9838;SDS011;4958;48.150;11.506;2022-07-23T19:42:44;7.90;;;7.35;;
9838;SDS011;4958;48.150;11.506;2022-07-23T19:45:10;7.75;;;7.05;;
9838;SDS011;4958;48.150;11.506;2022-07-23T19:47:39;8.18;;;7.57;;
9838;SDS011;4958;48.150;11.506;2022-07-23T19:50:09;7.95;;;7.25;;
9838;SDS011;4958;48.150;11.506;2022-07-23T19:52:36;7.55;;;6.95;;
9838;SDS011;4958;48.150;11.506;2022-07-23T19:55:03;7.80;;;7.20;;
9838;SDS011;4958;48.150;11.506;2022-07-23T19:57:31;8.40;;;7.57;;
9838;SDS011;4958;48.150;11.506;2022-07-23T19:59:59;8.27;;;7.57;;
9838;SDS011;4958;48.150;11.506;2022-07-23T20:02:25;7.40;;;6.80;;
9838;SDS011;4958;48.150;11.506;2022-07-23T20:04:52;7.53;;;7.03;;
9838;SDS011;4958;48.150;11.506;2022-07-23T20:07:18;7.68;;;7.07;;
9838;SDS011;4958;48.150;11.506;2022-07-23T20:09:45;7.80;;;7.20;;
9838;SDS011;4958;48.150;11.506;2022-07-23T20:12:12;7.75;;;7.07;;
9838;SDS011;4958;48.150;11.506;2022-07-23T20:14:38;8.00;;;7.22;;
9838;SDS011;4958;48.150;11.506;2022-07-23T20:17:06;8.00;;;7.40;;
9838;SDS011;4958;48.150;11.506;2022-07-23T20:19:33;8.57;;;7.78;;
9838;SDS011;4958;48.150;11.506;2022-07-23T20:22:00;8.68;;;7.88;;
9838;SDS011;4958;48.150;11.506;2022-07-23T20:24:27;7.65;;;7.05;;
9838;SDS011;4958;48.150;11.506;2022-07-23T20:26:53;7.93;;;7.30;;
9838;SDS011;4958;48.150;11.506;2022-07-23T20:29:20;7.47;;;6.78;;
9838;SDS011;4958;48.150;11.506;2022-07-23T20:31:47;7.82;;;7.13;;
9838;SDS011;4958;48.150;11.506;2022-07-23T20:34:18;6.95;;;6.35;;
9838;SDS011;4958;48.150;11.506;2022-07-23T20:36:44;7.60;;;6.90;;
9838;SDS011;4958;48.150;11.506;2022-07-23T20:39:14;7.50;;;6.85;;
9838;SDS011;4958;48.150;11.506;2022-07-23T20:41:40;6.93;;;6.43;;
9838;SDS011;4958;48.150;11.506;2022-07-23T20:44:08;7.68;;;7.15;;
9838;SDS011;4958;48.150;11.506;2022-07-23T20:46:36;7.38;;;6.88;;
9838;SDS011;4958;48.150;11.506;2022-07-23T20:49:02;7.97;;;7.30;;
9838;SDS011;4958;48.150;11.506;2022-07-23T20:51:31;7.95;;;7.25;;
9838;SDS011;4958;48.150;11.506;2022-07-23T20:53:57;7.63;;;7.00;;
9838;SDS011;4958;48.150;11.506;2022-07-23T20:56:24;7.85;;;7.15;;
9838;SDS011;4958;48.150;11.506;2022-07-23T20:58:51;8.15;;;7.43;;
9838;SDS011;4958;48.150;11.506;2022-07-23T21:01:18;8.40;;;7.45;;
9838;SDS011;4958;48.150;11.506;2022-07-23T21:03:44;8.10;;;7.50;;
9838;SDS011;4958;48.150;11.506;2022-07-23T21:06:11;8.02;;;7.43;;
9838;SDS011;4958;48.150;11.506;2022-07-23T21:08:39;7.70;;;7.07;;
9838;SDS011;4958;48.150;11.506;2022-07-23T21:11:05;8.23;;;7.40;;
9838;SDS011;4958;48.150;11.506;2022-07-23T21:13:34;7.85;;;7.25;;
9838;SDS011;4958;48.150;11.506;2022-07-23T21:16:00;7.85;;;7.25;;
9838;SDS011;4958;48.150;11.506;2022-07-23T21:18:27;8.32;;;7.60;;
9838;SDS011;4958;48.150;11.506;2022-07-23T21:20:53;8.05;;;7.35;;
9838;SDS011;4958;48.150;11.506;2022-07-23T21:23:36;8.15;;;7.55;;
9838;SDS011;4958;48.150;11.506;2022-07-23T21:26:06;7.95;;;7.35;;
9838;SDS011;4958;48.150;11.506;2022-07-23T21:28:34;8.90;;;8.10;;
9838;SDS011;4958;48.150;11.506;2022-07-23T21:31:00;8.10;;;7.40;;
9838;SDS011;4958;48.150;11.506;2022-07-23T21:33:29;8.15;;;7.35;;
9838;SDS011;4958;48.150;11.506;2022-07-23T21:35:56;8.27;;;7.50;;
9838;SDS011;4958;48.150;11.506;2022-07-23T21:38:23;8.40;;;7.70;;
9838;SDS011;4958;48.150;11.506;2022-07-23T21:40:51;8.52;;;7.82;;
9838;SDS011;4958;48.150;11.506;2022-07-23T21:43:20;8.45;;;7.75;;
9838;SDS011;4958;48.150;11.506;2022-07-23T21:45:47;8.52;;;7.82;;
9838;SDS011;4958;48.150;11.506;2022-07-23T21:48:14;8.38;;;7.68;;
9838;SDS011;4958;48.150;11.506;2022-07-23T21:50:41;8.18;;;7.40;;
9838;SDS011;4958;48.150;11.506;2022-07-23T21:53:08;8.70;;;7.90;;
9838;SDS011;4958;48.150;11.506;2022-07-23T21:55:34;8.50;;;7.70;;
9838;SDS011;4958;48.150;11.506;2022-07-23T21:58:02;8.82;;;8.13;;
9838;SDS011;4958;48.150;11.506;2022-07-23T22:00:30;8.38;;;7.68;;
9838;SDS011;4958;48.150;11.506;2022-07-23T22:02:59;8.70;;;8.00;;
9838;SDS011;4958;48.150;11.506;2022-07-23T22:05:30;8.18;;;7.47;;
9838;SDS011;4958;48.150;11.506;2022-07-23T22:07:56;9.02;;;8.15;;
9838;SDS011;4958;48.150;11.506;2022-07-23T22:10:23;8.45;;;7.85;;
9838;SDS011;4958;48.150;11.506;2022-07-23T22:12:51;9.05;;;8.35;;
9838;SDS011;4958;48.150;11.506;2022-07-23T22:15:19;8.88;;;8.18;;
9838;SDS011;4958;48.150;11.506;2022-07-23T22:17:47;8.90;;;8.18;;
9838;SDS011;4958;48.150;11.506;2022-07-23T22:20:14;8.93;;;8.13;;
9838;SDS011;4958;48.150;11.506;2022-07-23T22:22:41;8.82;;;8.15;;
9838;SDS011;4958;48.150;11.506;2022-07-23T22:25:08;8.10;;;7.50;;
9838;SDS011;4958;48.150;11.506;2022-07-23T22:27:35;8.30;;;7.70;;
9838;SDS011;4958;48.150;11.506;2022-07-23T22:30:02;8.52;;;7.82;;
9838;SDS011;4958;48.150;11.506;2022-07-23T22:32:30;8.57;;;7.85;;
9838;SDS011;4958;48.150;11.506;2022-07-23T22:34:57;8.00;;;7.43;;
9838;SDS011;4958;48.150;11.506;2022-07-23T22:37:23;9.18;;;8.20;;
9838;SDS011;4958;48.150;11.506;2022-07-23T22:39:49;8.48;;;7.75;;
9838;SDS011;4958;48.150;11.506;2022-07-23T22:42:16;8.57;;;7.88;;
9838;SDS011;4958;48.150;11.506;2022-07-23T22:44:42;8.48;;;7.88;;
9838;SDS011;4958;48.150;11.506;2022-07-23T22:47:09;8.50;;;7.70;;